Terminal Aerodrome Forecast
Issued by NWS

Home | Current Version | Previous Version | Text Only | Print | Product List | Glossary On
Versions: 1 2 3 4 5 6 7 8 9 10 11 12
803
FTUS45 KABQ 260543
TAFTCC
TAF
KTCC 260543Z 2606/2706 21009KT P6SM FEW250
     FM260900 27008KT P6SM SCT200
     FM261900 23014G24KT P6SM BKN130
     FM262200 24012KT P6SM BKN100
     FM270200 24008KT P6SM SKC=

USA.gov is the U.S. government's official web portal to all federal, state and local government web resources and services.